sensor_id;sensor_type;location;lat;lon;timestamp;temperature;humidity
23116;DHT22;11727;52.134;5.052;2023-03-26T00:01:53;8.20;99.90
23116;DHT22;11727;52.134;5.052;2023-03-26T00:04:19;8.20;99.90
23116;DHT22;11727;52.134;5.052;2023-03-26T00:06:46;8.20;99.90
23116;DHT22;11727;52.134;5.052;2023-03-26T00:09:14;8.10;99.90
23116;DHT22;11727;52.134;5.052;2023-03-26T00:11:41;8.10;99.90
23116;DHT22;11727;52.134;5.052;2023-03-26T00:14:08;8.10;99.90
23116;DHT22;11727;52.134;5.052;2023-03-26T00:16:34;8.10;99.90
23116;DHT22;11727;52.134;5.052;2023-03-26T00:19:01;8.00;99.90
23116;DHT22;11727;52.134;5.052;2023-03-26T00:21:28;8.00;99.90
23116;DHT22;11727;52.134;5.052;2023-03-26T00:24:00;8.00;99.90
23116;DHT22;11727;52.134;5.052;2023-03-26T00:26:28;8.00;99.90
23116;DHT22;11727;52.134;5.052;2023-03-26T00:28:56;8.00;99.90
23116;DHT22;11727;52.134;5.052;2023-03-26T00:31:22;8.00;99.90
23116;DHT22;11727;52.134;5.052;2023-03-26T00:33:50;8.10;99.90
23116;DHT22;11727;52.134;5.052;2023-03-26T00:36:20;8.10;99.90
23116;DHT22;11727;52.134;5.052;2023-03-26T00:38:46;8.00;99.90
23116;DHT22;11727;52.134;5.052;2023-03-26T00:41:15;8.10;99.90
23116;DHT22;11727;52.134;5.052;2023-03-26T00:43:51;8.10;99.90
23116;DHT22;11727;52.134;5.052;2023-03-26T00:46:18;8.00;99.90
23116;DHT22;11727;52.134;5.052;2023-03-26T00:48:45;8.00;99.90
23116;DHT22;11727;52.134;5.052;2023-03-26T00:51:12;8.00;99.90
23116;DHT22;11727;52.134;5.052;2023-03-26T00:53:40;8.10;99.90
23116;DHT22;11727;52.134;5.052;2023-03-26T00:56:07;8.10;99.90
23116;DHT22;11727;52.134;5.052;2023-03-26T00:58:33;8.10;99.90
23116;DHT22;11727;52.134;5.052;2023-03-26T01:01:02;8.10;99.90
23116;DHT22;11727;52.134;5.052;2023-03-26T01:03:32;8.20;99.90
23116;DHT22;11727;52.134;5.052;2023-03-26T01:08:47;8.20;99.90
23116;DHT22;11727;52.134;5.052;2023-03-26T01:13:45;8.20;99.90
23116;DHT22;11727;52.134;5.052;2023-03-26T01:16:28;8.20;99.90
23116;DHT22;11727;52.134;5.052;2023-03-26T01:18:55;8.20;99.90
23116;DHT22;11727;52.134;5.052;2023-03-26T01:21:23;8.20;99.90
23116;DHT22;11727;52.134;5.052;2023-03-26T01:24:05;8.20;99.90
23116;DHT22;11727;52.134;5.052;2023-03-26T01:26:49;8.20;99.90
23116;DHT22;11727;52.134;5.052;2023-03-26T01:29:26;8.20;99.90
23116;DHT22;11727;52.134;5.052;2023-03-26T01:34:43;8.20;99.90
23116;DHT22;11727;52.134;5.052;2023-03-26T01:37:28;8.20;99.90
23116;DHT22;11727;52.134;5.052;2023-03-26T01:40:22;8.20;99.90
23116;DHT22;11727;52.134;5.052;2023-03-26T01:45:55;8.20;99.90
23116;DHT22;11727;52.134;5.052;2023-03-26T01:48:31;8.20;99.90
23116;DHT22;11727;52.134;5.052;2023-03-26T01:50:57;8.20;99.90
23116;DHT22;11727;52.134;5.052;2023-03-26T01:53:23;8.20;99.90
23116;DHT22;11727;52.134;5.052;2023-03-26T02:01:32;8.20;99.90
23116;DHT22;11727;52.134;5.052;2023-03-26T02:04:05;8.30;99.90
23116;DHT22;11727;52.134;5.052;2023-03-26T02:06:43;8.30;99.90
23116;DHT22;11727;52.134;5.052;2023-03-26T02:09:14;8.30;99.90
23116;DHT22;11727;52.134;5.052;2023-03-26T02:11:43;8.30;99.90
23116;DHT22;11727;52.134;5.052;2023-03-26T02:14:09;8.30;99.90
23116;DHT22;11727;52.134;5.052;2023-03-26T02:16:36;8.30;99.90
23116;DHT22;11727;52.134;5.052;2023-03-26T02:19:03;8.40;99.90
23116;DHT22;11727;52.134;5.052;2023-03-26T02:21:29;8.40;99.90
23116;DHT22;11727;52.134;5.052;2023-03-26T02:23:58;8.40;99.90
23116;DHT22;11727;52.134;5.052;2023-03-26T02:26:31;8.50;99.90
23116;DHT22;11727;52.134;5.052;2023-03-26T02:28:57;8.50;99.90
23116;DHT22;11727;52.134;5.052;2023-03-26T02:31:23;8.50;99.90
23116;DHT22;11727;52.134;5.052;2023-03-26T02:33:53;8.50;99.90
23116;DHT22;11727;52.134;5.052;2023-03-26T02:36:20;8.50;99.90
23116;DHT22;11727;52.134;5.052;2023-03-26T02:38:49;8.50;99.90
23116;DHT22;11727;52.134;5.052;2023-03-26T02:41:16;8.60;99.90
23116;DHT22;11727;52.134;5.052;2023-03-26T02:43:42;8.50;99.90
23116;DHT22;11727;52.134;5.052;2023-03-26T02:46:07;8.60;99.90
23116;DHT22;11727;52.134;5.052;2023-03-26T02:48:33;8.60;99.90
23116;DHT22;11727;52.134;5.052;2023-03-26T02:51:02;8.60;99.90
23116;DHT22;11727;52.134;5.052;2023-03-26T02:53:28;8.60;99.90
23116;DHT22;11727;52.134;5.052;2023-03-26T02:55:58;8.60;99.90
23116;DHT22;11727;52.134;5.052;2023-03-26T02:58:24;8.60;99.90
23116;DHT22;11727;52.134;5.052;2023-03-26T03:00:51;8.60;99.90
23116;DHT22;11727;52.134;5.052;2023-03-26T03:03:23;8.60;99.90
23116;DHT22;11727;52.134;5.052;2023-03-26T03:05:53;8.60;99.90
23116;DHT22;11727;52.134;5.052;2023-03-26T03:08:24;8.60;99.90
23116;DHT22;11727;52.134;5.052;2023-03-26T03:11:19;8.60;99.90
23116;DHT22;11727;52.134;5.052;2023-03-26T03:13:49;8.60;99.90
23116;DHT22;11727;52.134;5.052;2023-03-26T03:16:15;8.60;99.90
23116;DHT22;11727;52.134;5.052;2023-03-26T03:18:41;8.60;99.90
23116;DHT22;11727;52.134;5.052;2023-03-26T03:21:07;8.60;99.90
23116;DHT22;11727;52.134;5.052;2023-03-26T03:23:32;8.60;99.90
23116;DHT22;11727;52.134;5.052;2023-03-26T03:25:58;8.60;99.90
23116;DHT22;11727;52.134;5.052;2023-03-26T03:28:24;8.60;99.90
23116;DHT22;11727;52.134;5.052;2023-03-26T03:30:50;8.60;99.90
23116;DHT22;11727;52.134;5.052;2023-03-26T03:33:22;8.60;99.90
23116;DHT22;11727;52.134;5.052;2023-03-26T03:35:48;8.60;99.90
23116;DHT22;11727;52.134;5.052;2023-03-26T03:38:15;8.60;99.90
23116;DHT22;11727;52.134;5.052;2023-03-26T03:40:41;8.60;99.90
23116;DHT22;11727;52.134;5.052;2023-03-26T03:43:07;8.60;99.90
23116;DHT22;11727;52.134;5.052;2023-03-26T03:45:32;8.60;99.90
23116;DHT22;11727;52.134;5.052;2023-03-26T03:47:58;8.60;99.90
23116;DHT22;11727;52.134;5.052;2023-03-26T03:50:24;8.50;99.90
23116;DHT22;11727;52.134;5.052;2023-03-26T03:52:51;8.50;99.90
23116;DHT22;11727;52.134;5.052;2023-03-26T03:55:16;8.50;99.90
23116;DHT22;11727;52.134;5.052;2023-03-26T03:57:42;8.50;99.90
23116;DHT22;11727;52.134;5.052;2023-03-26T04:00:09;8.50;99.90
23116;DHT22;11727;52.134;5.052;2023-03-26T04:02:36;8.50;99.90
23116;DHT22;11727;52.134;5.052;2023-03-26T04:05:03;8.50;99.90
23116;DHT22;11727;52.134;5.052;2023-03-26T04:07:29;8.50;99.90
23116;DHT22;11727;52.134;5.052;2023-03-26T04:09:55;8.50;99.90
23116;DHT22;11727;52.134;5.052;2023-03-26T04:12:21;8.50;99.90
23116;DHT22;11727;52.134;5.052;2023-03-26T04:14:47;8.50;99.90
23116;DHT22;11727;52.134;5.052;2023-03-26T04:17:13;8.60;99.90
23116;DHT22;11727;52.134;5.052;2023-03-26T04:19:39;8.50;99.90
23116;DHT22;11727;52.134;5.052;2023-03-26T04:22:05;8.50;99.90
23116;DHT22;11727;52.134;5.052;2023-03-26T04:24:31;8.60;99.90
23116;DHT22;11727;52.134;5.052;2023-03-26T04:26:59;8.60;99.90
23116;DHT22;11727;52.134;5.052;2023-03-26T04:29:29;8.60;99.90
23116;DHT22;11727;52.134;5.052;2023-03-26T04:31:57;8.60;99.90
23116;DHT22;11727;52.134;5.052;2023-03-26T04:34:24;8.60;99.90
23116;DHT22;11727;52.134;5.052;2023-03-26T04:36:51;8.60;99.90
23116;DHT22;11727;52.134;5.052;2023-03-26T04:39:19;8.60;99.90
23116;DHT22;11727;52.134;5.052;2023-03-26T04:41:48;8.60;99.90
23116;DHT22;11727;52.134;5.052;2023-03-26T04:44:13;8.60;99.90
23116;DHT22;11727;52.134;5.052;2023-03-26T04:46:41;8.60;99.90
23116;DHT22;11727;52.134;5.052;2023-03-26T04:49:08;8.60;99.90
23116;DHT22;11727;52.134;5.052;2023-03-26T04:51:38;8.60;99.90
23116;DHT22;11727;52.134;5.052;2023-03-26T04:54:06;8.70;99.90
23116;DHT22;11727;52.134;5.052;2023-03-26T04:59:01;8.60;99.90
23116;DHT22;11727;52.134;5.052;2023-03-26T05:01:27;8.60;99.90
23116;DHT22;11727;52.134;5.052;2023-03-26T05:03:54;8.60;99.90
23116;DHT22;11727;52.134;5.052;2023-03-26T05:06:20;8.60;99.90
23116;DHT22;11727;52.134;5.052;2023-03-26T05:08:46;8.70;99.90
23116;DHT22;11727;52.134;5.052;2023-03-26T05:11:12;8.70;99.90
23116;DHT22;11727;52.134;5.052;2023-03-26T05:13:38;8.70;99.90
23116;DHT22;11727;52.134;5.052;2023-03-26T05:16:08;8.70;99.90
23116;DHT22;11727;52.134;5.052;2023-03-26T05:18:33;8.70;99.90
23116;DHT22;11727;52.134;5.052;2023-03-26T05:20:59;8.70;99.90
23116;DHT22;11727;52.134;5.052;2023-03-26T05:23:25;8.70;99.90
23116;DHT22;11727;52.134;5.052;2023-03-26T05:25:50;8.80;99.90
23116;DHT22;11727;52.134;5.052;2023-03-26T05:28:16;8.80;99.90
23116;DHT22;11727;52.134;5.052;2023-03-26T05:30:45;8.80;99.90
23116;DHT22;11727;52.134;5.052;2023-03-26T05:33:11;8.80;99.90
23116;DHT22;11727;52.134;5.052;2023-03-26T05:35:36;8.80;99.90
23116;DHT22;11727;52.134;5.052;2023-03-26T05:38:02;8.70;99.90
23116;DHT22;11727;52.134;5.052;2023-03-26T05:40:27;8.70;99.90
23116;DHT22;11727;52.134;5.052;2023-03-26T05:42:53;8.70;99.90
23116;DHT22;11727;52.134;5.052;2023-03-26T05:45:19;8.70;99.90
23116;DHT22;11727;52.134;5.052;2023-03-26T05:47:46;8.70;99.90
23116;DHT22;11727;52.134;5.052;2023-03-26T05:50:14;8.60;99.90
23116;DHT22;11727;52.134;5.052;2023-03-26T05:52:40;8.60;99.90
23116;DHT22;11727;52.134;5.052;2023-03-26T05:55:06;8.60;99.90
23116;DHT22;11727;52.134;5.052;2023-03-26T05:57:33;8.60;99.90
23116;DHT22;11727;52.134;5.052;2023-03-26T06:00:00;8.60;99.90
23116;DHT22;11727;52.134;5.052;2023-03-26T06:02:26;8.50;99.90
23116;DHT22;11727;52.134;5.052;2023-03-26T06:04:53;8.60;99.90
23116;DHT22;11727;52.134;5.052;2023-03-26T06:07:21;8.50;99.90
23116;DHT22;11727;52.134;5.052;2023-03-26T06:09:47;8.50;99.90
23116;DHT22;11727;52.134;5.052;2023-03-26T06:12:13;8.50;99.90
23116;DHT22;11727;52.134;5.052;2023-03-26T06:14:39;8.50;99.90
23116;DHT22;11727;52.134;5.052;2023-03-26T06:17:07;8.50;99.90
23116;DHT22;11727;52.134;5.052;2023-03-26T06:19:33;8.50;99.90
23116;DHT22;11727;52.134;5.052;2023-03-26T06:22:01;8.60;99.90
23116;DHT22;11727;52.134;5.052;2023-03-26T06:24:27;8.60;99.90
23116;DHT22;11727;52.134;5.052;2023-03-26T06:26:53;8.60;99.90
23116;DHT22;11727;52.134;5.052;2023-03-26T06:29:18;8.60;99.90
23116;DHT22;11727;52.134;5.052;2023-03-26T06:31:44;8.50;99.90
23116;DHT22;11727;52.134;5.052;2023-03-26T06:34:10;8.50;99.90
23116;DHT22;11727;52.134;5.052;2023-03-26T06:36:35;8.50;99.90
23116;DHT22;11727;52.134;5.052;2023-03-26T06:39:01;8.50;99.90
23116;DHT22;11727;52.134;5.052;2023-03-26T06:41:27;8.50;99.90
23116;DHT22;11727;52.134;5.052;2023-03-26T06:43:52;8.50;99.90
23116;DHT22;11727;52.134;5.052;2023-03-26T06:46:21;8.50;99.90
23116;DHT22;11727;52.134;5.052;2023-03-26T06:48:48;8.50;99.90
23116;DHT22;11727;52.134;5.052;2023-03-26T06:51:13;8.40;99.90
23116;DHT22;11727;52.134;5.052;2023-03-26T06:53:39;8.40;99.90
23116;DHT22;11727;52.134;5.052;2023-03-26T06:56:05;8.40;99.90
23116;DHT22;11727;52.134;5.052;2023-03-26T06:58:31;8.40;99.90
23116;DHT22;11727;52.134;5.052;2023-03-26T07:00:56;8.30;99.90
23116;DHT22;11727;52.134;5.052;2023-03-26T07:03:22;8.30;99.90
23116;DHT22;11727;52.134;5.052;2023-03-26T07:05:48;8.30;99.90
23116;DHT22;11727;52.134;5.052;2023-03-26T07:08:14;8.30;99.90
23116;DHT22;11727;52.134;5.052;2023-03-26T07:10:40;8.30;99.90
23116;DHT22;11727;52.134;5.052;2023-03-26T07:13:06;8.30;99.90
23116;DHT22;11727;52.134;5.052;2023-03-26T07:15:31;8.30;99.90
23116;DHT22;11727;52.134;5.052;2023-03-26T07:17:57;8.30;99.90
23116;DHT22;11727;52.134;5.052;2023-03-26T07:20:23;8.30;99.90
23116;DHT22;11727;52.134;5.052;2023-03-26T07:22:52;8.30;99.90
23116;DHT22;11727;52.134;5.052;2023-03-26T07:25:18;8.40;99.90
23116;DHT22;11727;52.134;5.052;2023-03-26T07:28:01;8.40;99.90
23116;DHT22;11727;52.134;5.052;2023-03-26T07:36:14;8.40;99.90
23116;DHT22;11727;52.134;5.052;2023-03-26T07:46:40;8.50;99.90
23116;DHT22;11727;52.134;5.052;2023-03-26T07:49:10;8.50;99.90
23116;DHT22;11727;52.134;5.052;2023-03-26T07:51:37;8.50;99.90
23116;DHT22;11727;52.134;5.052;2023-03-26T07:54:03;8.50;99.90
23116;DHT22;11727;52.134;5.052;2023-03-26T07:56:33;8.50;99.90
23116;DHT22;11727;52.134;5.052;2023-03-26T07:59:33;8.50;99.90
23116;DHT22;11727;52.134;5.052;2023-03-26T08:05:16;8.60;99.90
23116;DHT22;11727;52.134;5.052;2023-03-26T08:10:42;8.60;99.90
23116;DHT22;11727;52.134;5.052;2023-03-26T08:16:18;8.70;99.90
23116;DHT22;11727;52.134;5.052;2023-03-26T08:19:19;8.70;99.90
23116;DHT22;11727;52.134;5.052;2023-03-26T08:21:54;8.70;99.90
23116;DHT22;11727;52.134;5.052;2023-03-26T08:30:26;8.80;99.90
23116;DHT22;11727;52.134;5.052;2023-03-26T08:32:55;8.70;99.90
23116;DHT22;11727;52.134;5.052;2023-03-26T08:35:22;8.60;99.90
23116;DHT22;11727;52.134;5.052;2023-03-26T08:37:47;8.50;99.90
23116;DHT22;11727;52.134;5.052;2023-03-26T08:40:30;8.40;99.90
23116;DHT22;11727;52.134;5.052;2023-03-26T08:54:08;7.90;99.90
23116;DHT22;11727;52.134;5.052;2023-03-26T09:02:49;7.90;99.90
23116;DHT22;11727;52.134;5.052;2023-03-26T09:16:51;7.80;99.90
23116;DHT22;11727;52.134;5.052;2023-03-26T09:25:39;7.80;99.90
23116;DHT22;11727;52.134;5.052;2023-03-26T09:39:33;8.00;99.90
23116;DHT22;11727;52.134;5.052;2023-03-26T10:01:05;8.10;99.90
23116;DHT22;11727;52.134;5.052;2023-03-26T10:03:48;8.00;99.90
23116;DHT22;11727;52.134;5.052;2023-03-26T10:22:47;7.90;99.90
23116;DHT22;11727;52.134;5.052;2023-03-26T10:31:16;7.90;99.90
23116;DHT22;11727;52.134;5.052;2023-03-26T10:34:13;7.90;99.90
23116;DHT22;11727;52.134;5.052;2023-03-26T10:36:55;7.90;99.90
23116;DHT22;11727;52.134;5.052;2023-03-26T10:48:47;7.90;99.90
23116;DHT22;11727;52.134;5.052;2023-03-26T10:54:25;7.90;99.90
23116;DHT22;11727;52.134;5.052;2023-03-26T10:56:54;7.80;99.90
23116;DHT22;11727;52.134;5.052;2023-03-26T10:59:20;7.80;99.90
23116;DHT22;11727;52.134;5.052;2023-03-26T11:07:43;7.80;99.90
23116;DHT22;11727;52.134;5.052;2023-03-26T11:10:18;7.90;99.90
23116;DHT22;11727;52.134;5.052;2023-03-26T11:15:40;7.80;99.90
23116;DHT22;11727;52.134;5.052;2023-03-26T11:32:14;7.70;99.90
23116;DHT22;11727;52.134;5.052;2023-03-26T11:34:59;7.80;99.90
23116;DHT22;11727;52.134;5.052;2023-03-26T11:43:02;7.70;99.90
23116;DHT22;11727;52.134;5.052;2023-03-26T11:45:32;7.70;99.90
23116;DHT22;11727;52.134;5.052;2023-03-26T11:48:21;7.70;99.90
23116;DHT22;11727;52.134;5.052;2023-03-26T11:50:50;7.70;99.90
23116;DHT22;11727;52.134;5.052;2023-03-26T11:53:26;7.80;99.90
23116;DHT22;11727;52.134;5.052;2023-03-26T11:58:40;7.80;99.90
23116;DHT22;11727;52.134;5.052;2023-03-26T12:01:18;7.90;99.90
23116;DHT22;11727;52.134;5.052;2023-03-26T12:04:10;8.00;99.90
23116;DHT22;11727;52.134;5.052;2023-03-26T12:06:38;8.00;99.90
23116;DHT22;11727;52.134;5.052;2023-03-26T12:09:13;7.90;99.90
23116;DHT22;11727;52.134;5.052;2023-03-26T12:11:40;8.00;99.90
23116;DHT22;11727;52.134;5.052;2023-03-26T12:14:06;8.00;99.90
23116;DHT22;11727;52.134;5.052;2023-03-26T12:16:33;8.10;99.90
23116;DHT22;11727;52.134;5.052;2023-03-26T12:19:05;8.10;99.90
23116;DHT22;11727;52.134;5.052;2023-03-26T12:21:49;8.20;99.90
23116;DHT22;11727;52.134;5.052;2023-03-26T12:24:30;8.30;99.90
23116;DHT22;11727;52.134;5.052;2023-03-26T12:27:24;8.40;99.90
23116;DHT22;11727;52.134;5.052;2023-03-26T12:30:10;8.50;99.90
23116;DHT22;11727;52.134;5.052;2023-03-26T12:32:40;8.60;99.90
23116;DHT22;11727;52.134;5.052;2023-03-26T12:35:12;8.60;99.90
23116;DHT22;11727;52.134;5.052;2023-03-26T12:37:43;8.60;99.90
23116;DHT22;11727;52.134;5.052;2023-03-26T12:42:58;8.60;99.90
23116;DHT22;11727;52.134;5.052;2023-03-26T12:45:39;8.70;99.90
23116;DHT22;11727;52.134;5.052;2023-03-26T12:48:08;8.70;99.90
23116;DHT22;11727;52.134;5.052;2023-03-26T13:11:09;9.20;99.90
23116;DHT22;11727;52.134;5.052;2023-03-26T13:16:47;9.20;99.90
23116;DHT22;11727;52.134;5.052;2023-03-26T13:19:22;9.20;99.90
23116;DHT22;11727;52.134;5.052;2023-03-26T13:22:24;9.20;99.90
23116;DHT22;11727;52.134;5.052;2023-03-26T13:24:59;9.30;99.90
23116;DHT22;11727;52.134;5.052;2023-03-26T13:30:28;9.30;99.90
23116;DHT22;11727;52.134;5.052;2023-03-26T13:35:46;9.40;99.90
23116;DHT22;11727;52.134;5.052;2023-03-26T13:38:28;9.50;99.90
23116;DHT22;11727;52.134;5.052;2023-03-26T13:41:14;9.60;99.90
23116;DHT22;11727;52.134;5.052;2023-03-26T13:43:45;9.50;99.90
23116;DHT22;11727;52.134;5.052;2023-03-26T13:49:02;9.30;99.90
23116;DHT22;11727;52.134;5.052;2023-03-26T13:51:55;9.30;99.90
23116;DHT22;11727;52.134;5.052;2023-03-26T13:57:17;9.50;99.90
23116;DHT22;11727;52.134;5.052;2023-03-26T13:59:57;9.50;99.90
23116;DHT22;11727;52.134;5.052;2023-03-26T14:02:39;9.40;99.90
23116;DHT22;11727;52.134;5.052;2023-03-26T14:05:15;9.30;99.90
23116;DHT22;11727;52.134;5.052;2023-03-26T14:07:52;9.30;99.90
23116;DHT22;11727;52.134;5.052;2023-03-26T14:10:30;9.20;99.90
23116;DHT22;11727;52.134;5.052;2023-03-26T14:13:21;9.00;99.90
23116;DHT22;11727;52.134;5.052;2023-03-26T14:16:30;9.00;99.90
23116;DHT22;11727;52.134;5.052;2023-03-26T14:19:10;9.00;99.90
23116;DHT22;11727;52.134;5.052;2023-03-26T14:24:50;9.10;99.90
23116;DHT22;11727;52.134;5.052;2023-03-26T14:27:43;9.20;99.90
23116;DHT22;11727;52.134;5.052;2023-03-26T14:33:40;9.20;99.90
23116;DHT22;11727;52.134;5.052;2023-03-26T14:36:08;9.20;99.90
23116;DHT22;11727;52.134;5.052;2023-03-26T14:49:37;9.30;99.90
23116;DHT22;11727;52.134;5.052;2023-03-26T14:52:41;9.10;99.90
23116;DHT22;11727;52.134;5.052;2023-03-26T15:06:46;8.70;99.90
23116;DHT22;11727;52.134;5.052;2023-03-26T15:42:02;8.40;99.90
23116;DHT22;11727;52.134;5.052;2023-03-26T15:50:52;8.20;99.90
23116;DHT22;11727;52.134;5.052;2023-03-26T15:53:46;8.10;99.90
23116;DHT22;11727;52.134;5.052;2023-03-26T15:58:55;8.00;99.90
23116;DHT22;11727;52.134;5.052;2023-03-26T16:01:42;8.00;99.90
23116;DHT22;11727;52.134;5.052;2023-03-26T16:10:28;8.00;99.90
23116;DHT22;11727;52.134;5.052;2023-03-26T16:13:26;8.00;99.90
23116;DHT22;11727;52.134;5.052;2023-03-26T16:18:34;8.00;99.90
23116;DHT22;11727;52.134;5.052;2023-03-26T16:29:26;7.60;99.90
23116;DHT22;11727;52.134;5.052;2023-03-26T16:34:36;7.40;99.90
23116;DHT22;11727;52.134;5.052;2023-03-26T16:54:40;7.50;99.90
23116;DHT22;11727;52.134;5.052;2023-03-26T16:59:55;7.50;99.90
23116;DHT22;11727;52.134;5.052;2023-03-26T17:05:31;7.50;99.90
23116;DHT22;11727;52.134;5.052;2023-03-26T17:08:04;7.40;99.90
23116;DHT22;11727;52.134;5.052;2023-03-26T17:13:20;7.30;99.90
23116;DHT22;11727;52.134;5.052;2023-03-26T17:16:20;7.20;99.90
23116;DHT22;11727;52.134;5.052;2023-03-26T17:19:13;7.20;99.90
23116;DHT22;11727;52.134;5.052;2023-03-26T17:22:10;7.20;99.90
23116;DHT22;11727;52.134;5.052;2023-03-26T17:25:04;7.10;99.90
23116;DHT22;11727;52.134;5.052;2023-03-26T17:27:43;7.10;99.90
23116;DHT22;11727;52.134;5.052;2023-03-26T17:35:49;6.90;99.90
23116;DHT22;11727;52.134;5.052;2023-03-26T17:40:51;6.90;99.90
23116;DHT22;11727;52.134;5.052;2023-03-26T17:43:35;6.90;99.90
23116;DHT22;11727;52.134;5.052;2023-03-26T17:51:59;6.90;99.90
23116;DHT22;11727;52.134;5.052;2023-03-26T17:56:54;6.80;99.90
23116;DHT22;11727;52.134;5.052;2023-03-26T17:59:23;6.70;99.90
23116;DHT22;11727;52.134;5.052;2023-03-26T18:01:54;6.60;99.90
23116;DHT22;11727;52.134;5.052;2023-03-26T18:04:28;6.50;99.90
23116;DHT22;11727;52.134;5.052;2023-03-26T18:07:11;6.50;99.90
23116;DHT22;11727;52.134;5.052;2023-03-26T18:18:41;6.30;99.90
23116;DHT22;11727;52.134;5.052;2023-03-26T18:21:15;6.30;99.90
23116;DHT22;11727;52.134;5.052;2023-03-26T18:23:47;6.30;99.90
23116;DHT22;11727;52.134;5.052;2023-03-26T18:26:20;6.30;99.90
23116;DHT22;11727;52.134;5.052;2023-03-26T18:28:52;6.40;99.90
23116;DHT22;11727;52.134;5.052;2023-03-26T18:31:25;6.40;99.90
23116;DHT22;11727;52.134;5.052;2023-03-26T18:33:56;6.50;99.90
23116;DHT22;11727;52.134;5.052;2023-03-26T18:36:25;6.60;99.90
23116;DHT22;11727;52.134;5.052;2023-03-26T18:38:58;6.60;99.90
23116;DHT22;11727;52.134;5.052;2023-03-26T18:41:29;6.60;99.90
23116;DHT22;11727;52.134;5.052;2023-03-26T18:44:00;6.60;99.90
23116;DHT22;11727;52.134;5.052;2023-03-26T18:46:26;6.60;99.90
23116;DHT22;11727;52.134;5.052;2023-03-26T18:48:52;6.60;99.90
23116;DHT22;11727;52.134;5.052;2023-03-26T18:51:20;6.60;99.90
23116;DHT22;11727;52.134;5.052;2023-03-26T18:53:53;6.60;99.90
23116;DHT22;11727;52.134;5.052;2023-03-26T18:58:55;6.60;99.90
23116;DHT22;11727;52.134;5.052;2023-03-26T19:01:22;6.60;99.90
23116;DHT22;11727;52.134;5.052;2023-03-26T19:03:50;6.50;99.90
23116;DHT22;11727;52.134;5.052;2023-03-26T19:06:17;6.50;99.90
23116;DHT22;11727;52.134;5.052;2023-03-26T19:08:46;6.50;99.90
23116;DHT22;11727;52.134;5.052;2023-03-26T19:11:15;6.40;99.90
23116;DHT22;11727;52.134;5.052;2023-03-26T19:13:48;6.40;99.90
23116;DHT22;11727;52.134;5.052;2023-03-26T19:16:23;6.40;99.90
23116;DHT22;11727;52.134;5.052;2023-03-26T19:18:50;6.30;99.90
23116;DHT22;11727;52.134;5.052;2023-03-26T19:21:17;6.20;99.90
23116;DHT22;11727;52.134;5.052;2023-03-26T19:23:44;6.20;99.90
23116;DHT22;11727;52.134;5.052;2023-03-26T19:26:11;6.20;99.90
23116;DHT22;11727;52.134;5.052;2023-03-26T19:31:19;6.20;99.90
23116;DHT22;11727;52.134;5.052;2023-03-26T19:33:57;6.20;99.90
23116;DHT22;11727;52.134;5.052;2023-03-26T19:36:25;6.20;99.90
23116;DHT22;11727;52.134;5.052;2023-03-26T19:39:03;6.20;99.90
23116;DHT22;11727;52.134;5.052;2023-03-26T19:41:37;6.20;99.90
23116;DHT22;11727;52.134;5.052;2023-03-26T19:44:20;6.20;99.90
23116;DHT22;11727;52.134;5.052;2023-03-26T19:46:48;6.20;99.90
23116;DHT22;11727;52.134;5.052;2023-03-26T19:49:25;6.10;99.90
23116;DHT22;11727;52.134;5.052;2023-03-26T19:51:51;6.10;99.90
23116;DHT22;11727;52.134;5.052;2023-03-26T19:54:18;6.10;99.90
23116;DHT22;11727;52.134;5.052;2023-03-26T19:56:44;6.10;99.90
23116;DHT22;11727;52.134;5.052;2023-03-26T19:59:10;6.10;99.90
23116;DHT22;11727;52.134;5.052;2023-03-26T20:01:35;6.10;99.90
23116;DHT22;11727;52.134;5.052;2023-03-26T20:04:08;6.10;99.90
23116;DHT22;11727;52.134;5.052;2023-03-26T20:06:34;6.20;99.90
23116;DHT22;11727;52.134;5.052;2023-03-26T20:09:03;6.10;99.90
23116;DHT22;11727;52.134;5.052;2023-03-26T20:11:32;6.10;99.90
23116;DHT22;11727;52.134;5.052;2023-03-26T20:14:03;6.10;99.90
23116;DHT22;11727;52.134;5.052;2023-03-26T20:16:32;6.10;99.90
23116;DHT22;11727;52.134;5.052;2023-03-26T20:19:01;6.10;99.90
23116;DHT22;11727;52.134;5.052;2023-03-26T20:21:28;6.20;99.90
23116;DHT22;11727;52.134;5.052;2023-03-26T20:23:54;6.20;99.90
23116;DHT22;11727;52.134;5.052;2023-03-26T20:26:21;6.20;99.90
23116;DHT22;11727;52.134;5.052;2023-03-26T20:28:51;6.20;99.90
23116;DHT22;11727;52.134;5.052;2023-03-26T20:31:19;6.20;99.90
23116;DHT22;11727;52.134;5.052;2023-03-26T20:33:47;6.10;99.90
23116;DHT22;11727;52.134;5.052;2023-03-26T20:36:15;6.10;99.90
23116;DHT22;11727;52.134;5.052;2023-03-26T20:38:42;6.20;99.90
23116;DHT22;11727;52.134;5.052;2023-03-26T20:41:16;6.20;99.90
23116;DHT22;11727;52.134;5.052;2023-03-26T20:43:43;6.10;99.90
23116;DHT22;11727;52.134;5.052;2023-03-26T20:48:43;6.10;99.90
23116;DHT22;11727;52.134;5.052;2023-03-26T20:51:09;6.00;99.90
23116;DHT22;11727;52.134;5.052;2023-03-26T20:53:38;6.00;99.90
23116;DHT22;11727;52.134;5.052;2023-03-26T20:56:16;6.00;99.90
23116;DHT22;11727;52.134;5.052;2023-03-26T20:58:42;6.00;99.90
23116;DHT22;11727;52.134;5.052;2023-03-26T21:01:09;5.90;99.90
23116;DHT22;11727;52.134;5.052;2023-03-26T21:03:36;5.90;99.90
23116;DHT22;11727;52.134;5.052;2023-03-26T21:06:04;5.90;99.90
23116;DHT22;11727;52.134;5.052;2023-03-26T21:08:31;5.80;99.90
23116;DHT22;11727;52.134;5.052;2023-03-26T21:11:00;5.80;99.90
23116;DHT22;11727;52.134;5.052;2023-03-26T21:16:02;5.70;99.90
23116;DHT22;11727;52.134;5.052;2023-03-26T21:18:28;5.70;99.90
23116;DHT22;11727;52.134;5.052;2023-03-26T21:23:54;5.50;99.90
23116;DHT22;11727;52.134;5.052;2023-03-26T21:29:05;5.40;99.90
23116;DHT22;11727;52.134;5.052;2023-03-26T21:31:31;5.30;99.90
23116;DHT22;11727;52.134;5.052;2023-03-26T21:34:01;5.30;99.90
23116;DHT22;11727;52.134;5.052;2023-03-26T21:36:27;5.30;99.90
23116;DHT22;11727;52.134;5.052;2023-03-26T21:38:53;5.30;99.90
23116;DHT22;11727;52.134;5.052;2023-03-26T21:43:49;5.30;99.90
23116;DHT22;11727;52.134;5.052;2023-03-26T21:46:15;5.30;99.90
23116;DHT22;11727;52.134;5.052;2023-03-26T21:48:41;5.30;99.90
23116;DHT22;11727;52.134;5.052;2023-03-26T21:51:09;5.20;99.90
23116;DHT22;11727;52.134;5.052;2023-03-26T21:53:35;5.20;99.90
23116;DHT22;11727;52.134;5.052;2023-03-26T22:01:36;5.10;99.90
23116;DHT22;11727;52.134;5.052;2023-03-26T22:04:15;5.10;99.90
23116;DHT22;11727;52.134;5.052;2023-03-26T22:06:50;5.10;99.90
23116;DHT22;11727;52.134;5.052;2023-03-26T22:09:18;5.00;99.90
23116;DHT22;11727;52.134;5.052;2023-03-26T22:11:44;4.90;99.90
23116;DHT22;11727;52.134;5.052;2023-03-26T22:14:09;4.90;99.90
23116;DHT22;11727;52.134;5.052;2023-03-26T22:16:38;4.80;99.90
23116;DHT22;11727;52.134;5.052;2023-03-26T22:19:03;4.90;99.90
23116;DHT22;11727;52.134;5.052;2023-03-26T22:21:30;4.80;99.90
23116;DHT22;11727;52.134;5.052;2023-03-26T22:23:58;4.90;99.90
23116;DHT22;11727;52.134;5.052;2023-03-26T22:26:28;4.90;99.90
23116;DHT22;11727;52.134;5.052;2023-03-26T22:28:54;4.90;99.90
23116;DHT22;11727;52.134;5.052;2023-03-26T22:31:21;4.90;99.90